Arctic Bay, Canada
Current Conditions -  °F | °C
As of 3:00 AM on Monday 20 Oct 2014 (Local Time) from CYIO Reporting Station
Broken Clouds Broken Clouds  
Wind Chill: -11°   Ceiling: 19000
Heat Index: -11°   Visibility: 9mi
Dew Point: -13°   Wind: 3mph
Humidity: 85%   Direction: 160°SSE
Pressure: 29.88"   Gusts: NA
Location:  73.03°N, 85.17°W
Report Text: CYIO 200800Z AUTO 16003KT 9SM FEW032 BKN190 M11/M13 A2988 RMK SLP126
Loading
Personal Weather Stations






























Interactive Weather Map
Tropical Storm Tracking
New forecast layout! Learn more

10-Day Weather Forecast

Advertisements
Track Severe Weather on mobile